Latest Weather Observations for Fort Denison

IDN60901

Issued at 3:21 am EDT Tuesday 3 March 2015 (issued every 10 minutes, with the page automatically refreshed every 10 minutes)

About weather observations | Map of Sydney area stations | Latest observations for Sydney area | Other Formats
Station Details ID: 066022 Name: FORT DENISON Lat: -33.86 Lon: 151.23 Height: 5.0 m
Data from the previous 72 hours. | See also: Recent months for locations in New South Wales
Date/Time
EDT
Tmp

°C
App
Tmp
°C
Dew
Point
°C
Rel
Hum
%
Delta-T

°C
Wind Press
QNH
hPa
Press
MSL
hPa
Rain
since
9 am
mm
Dir
 
Spd
km/h
Gust
km/h
Spd
kts
Gust
kts
03/03:00am - - - - - WNW 7 9 4 5 - - -
03/02:30am - - - - - NW 4 7 2 4 - - -
03/02:00am - - - - - WNW 9 11 5 6 - - -
03/01:30am - - - - - WNW 9 9 5 5 - - -
03/01:00am - - - - - WNW 13 15 7 8 - - -
03/12:30am - - - - - WNW 7 9 4 5 - - -
03/12:00am - - - - - WNW 6 7 3 4 - - -
 
Date/Time
EDT
Tmp

°C
App
Tmp
°C
Dew
Point
°C
Rel
Hum
%
Delta-T

°C
Wind Press
QNH
hPa
Press
MSL
hPa
Rain
since
9 am
mm
Dir
 
Spd
km/h
Gust
km/h
Spd
kts
Gust
kts
02/11:30pm - - - - - NW 6 7 3 4 - - -
02/11:00pm - - - - - NW 6 7 3 4 - - -
02/10:30pm - - - - - NNW 6 7 3 4 - - -
02/10:00pm - - - - - NNE 6 7 3 4 - - -
02/09:30pm - - - - - NE 11 17 6 9 - - -
02/09:00pm - - - - - NE 11 17 6 9 - - -
02/08:30pm - - - - - NE 9 13 5 7 - - -
02/08:00pm - - - - - ENE 17 20 9 11 - - -
02/07:30pm - - - - - ENE 15 20 8 11 - - -
02/07:00pm - - - - - E 17 20 9 11 - - -
02/06:30pm - - - - - E 15 19 8 10 - - -
02/06:00pm - - - - - E 15 19 8 10 - - -
02/05:30pm - - - - - E 19 22 10 12 - - -
02/05:00pm - - - - - E 17 22 9 12 - - -
02/04:30pm - - - - - ESE 20 24 11 13 - - -
02/04:00pm - - - - - ESE 19 24 10 13 - - -
02/03:30pm - - - - - ESE 15 22 8 12 - - -
02/03:00pm - - - - - SE 15 22 8 12 - - -
02/02:30pm - - - - - SSE 15 24 8 13 - - -
02/02:00pm - - - - - SSE 17 26 9 14 - - -
02/01:30pm - - - - - S 13 22 7 12 - - -
02/01:00pm - - - - - S 15 24 8 13 - - -
02/12:30pm - - - - - S 17 24 9 13 - - -
02/12:00pm - - - - - S 17 26 9 14 - - -
02/11:30am - - - - - S 17 26 9 14 - - -
02/11:00am - - - - - S 20 30 11 16 - - -
02/10:30am - - - - - SSW 20 30 11 16 - - -
02/10:00am - - - - - SSW 22 37 12 20 - - -
02/09:30am - - - - - SSW 26 37 14 20 - - -
02/09:00am - - - - - SSW 20 32 11 17 - - -
02/08:30am - - - - - SW 19 28 10 15 - - -
02/08:00am - - - - - W 17 22 9 12 - - -
02/07:30am - - - - - WSW 15 20 8 11 - - -
02/07:00am - - - - - SW 13 22 7 12 - - -
02/06:30am - - - - - SSW 17 28 9 15 - - -
02/06:00am - - - - - SW 19 26 10 14 - - -
02/05:30am - - - - - SW 17 26 9 14 - - -
02/05:00am - - - - - SSW 17 24 9 13 - - -
02/04:30am - - - - - SSW 20 30 11 16 - - -
02/04:00am - - - - - SSW 19 32 10 17 - - -
02/03:30am - - - - - S 19 30 10 16 - - -
02/03:00am - - - - - S 15 22 8 12 - - -
02/02:30am - - - - - SSE 17 28 9 15 - - -
02/02:00am - - - - - SSE 19 26 10 14 - - -
02/01:30am - - - - - SSE 20 32 11 17 - - -
02/01:00am - - - - - SSE 24 43 13 23 - - -
02/12:30am - - - - - SSE 26 39 14 21 - - -
02/12:03am - - - - - SSE 28 46 15 25 - - -
02/12:00am - - - - - SSE 30 46 16 25 - - -
 
Date/Time
EDT
Tmp

°C
App
Tmp
°C
Dew
Point
°C
Rel
Hum
%
Delta-T

°C
Wind Press
QNH
hPa
Press
MSL
hPa
Rain
since
9 am
mm
Dir
 
Spd
km/h
Gust
km/h
Spd
kts
Gust
kts
01/11:54pm - - - - - SSE 28 46 15 25 - - -
01/11:30pm - - - - - SSE 28 43 15 23 - - -
01/11:00pm - - - - - S 22 37 12 20 - - -
01/10:37pm - - - - - S 28 46 15 25 - - -
01/10:30pm - - - - - S 26 43 14 23 - - -
01/10:02pm - - - - - SSE 28 46 15 25 - - -
01/10:00pm - - - - - SSE 32 46 17 25 - - -
01/09:40pm - - - - - S 30 54 16 29 - - -
01/09:30pm - - - - - S 26 44 14 24 - - -
01/09:00pm - - - - - S 30 52 16 28 - - -
01/08:30pm - - - - - S 28 46 15 25 - - -
01/08:00pm - - - - - SSE 32 52 17 28 - - -
01/07:38pm - - - - - S 32 50 17 27 - - -
01/07:30pm - - - - - SSE 35 50 19 27 - - -
01/07:01pm - - - - - S 33 56 18 30 - - -
01/07:00pm - - - - - S 33 48 18 26 - - -
01/06:30pm - - - - - S 30 50 16 27 - - -
01/06:03pm - - - - - SSE 28 48 15 26 - - -
01/06:00pm - - - - - SSE 24 41 13 22 - - -
01/05:30pm - - - - - SSE 33 54 18 29 - - -
01/05:27pm - - - - - S 33 52 18 28 - - -
01/05:23pm - - - - - SSW 32 61 17 33 - - -
01/05:00pm - - - - - SSW 39 63 21 34 - - -
01/04:44pm - - - - - S 30 54 16 29 - - -
01/04:30pm - - - - - S 35 46 19 25 - - -
01/04:00pm - - - - - S 48 91 26 49 - - -
01/03:58pm - - - - - S 52 91 28 49 - - -
01/03:55pm - - - - - S 54 91 29 49 - - -
01/03:49pm - - - - - SSE 39 87 21 47 - - -
01/03:44pm - - - - - ESE 19 74 10 40 - - -
01/03:30pm - - - - - E 15 19 8 10 - - -
01/03:00pm - - - - - E 20 26 11 14 - - -
01/02:30pm - - - - - E 24 28 13 15 - - -
01/02:00pm - - - - - E 22 26 12 14 - - -
01/01:30pm - - - - - E 19 22 10 12 - - -
01/01:00pm - - - - - E 7 17 4 9 - - -
01/12:30pm - - - - - WNW 11 15 6 8 - - -
01/12:00pm - - - - - WNW 13 26 7 14 - - -
01/11:30am - - - - - SSE 4 9 2 5 - - -
01/11:00am - - - - - E 11 15 6 8 - - -
01/10:30am - - - - - E 11 15 6 8 - - -
01/10:00am - - - - - E 7 11 4 6 - - -
01/09:30am - - - - - E 4 7 2 4 - - -
01/09:00am - - - - - E 6 9 3 5 - - -
01/08:30am - - - - - N 7 11 4 6 - - -
01/08:00am - - - - - NE 4 6 2 3 - - -
01/07:30am - - - - - NNW 6 7 3 4 - - -
01/07:00am - - - - - NE 2 6 1 3 - - -
01/06:30am - - - - - ENE 2 7 1 4 - - -
01/06:00am - - - - - ENE 2 4 1 2 - - -
01/05:30am - - - - - ENE 2 6 1 3 - - -
01/05:00am - - - - - NNW 2 4 1 2 - - -
01/04:30am - - - - - NNE 4 4 2 2 - - -
01/04:00am - - - - - E 4 4 2 2 - - -
01/03:30am - - - - - ESE 2 4 1 2 - - -
01/03:00am - - - - - CALM 0 4 0 2 - - -
01/02:30am - - - - - CALM 0 0 0 0 - - -
01/02:00am - - - - - NE 2 4 1 2 - - -
01/01:30am - - - - - NNE 4 6 2 3 - - -
01/01:00am - - - - - ESE 6 7 3 4 - - -
01/12:30am - - - - - CALM 0 2 0 1 - - -
01/12:00am - - - - - ESE 4 6 2 3 - - -
 
Date/Time
EDT
Tmp

°C
App
Tmp
°C
Dew
Point
°C
Rel
Hum
%
Delta-T

°C
Wind Press
QNH
hPa
Press
MSL
hPa
Rain
since
9 am
mm
Dir
 
Spd
km/h
Gust
km/h
Spd
kts
Gust
kts
28/11:30pm - - - - - ESE 9 11 5 6 - - -
28/11:00pm - - - - - ESE 6 9 3 5 - - -
28/10:30pm - - - - - NE 6 11 3 6 - - -
28/10:00pm - - - - - NNE 24 37 13 20 - - -
28/09:30pm - - - - - NNE 26 39 14 21 - - -
28/09:00pm - - - - - NNE 22 32 12 17 - - -
28/08:30pm - - - - - NE 20 32 11 17 - - -
28/08:00pm - - - - - NE 17 28 9 15 - - -
28/07:30pm - - - - - NE 17 26 9 14 - - -
28/07:00pm - - - - - NE 17 30 9 16 - - -
28/06:30pm - - - - - ENE 19 30 10 16 - - -
28/06:00pm - - - - - NE 17 26 9 14 - - -
28/05:30pm - - - - - ENE 20 32 11 17 - - -
28/05:00pm - - - - - ENE 20 32 11 17 - - -
28/04:30pm - - - - - ENE 20 33 11 18 - - -
28/04:00pm - - - - - NE 24 35 13 19 - - -
28/03:30pm - - - - - NE 22 32 12 17 - - -
28/03:00pm - - - - - NE 22 35 12 19 - - -
28/02:30pm - - - - - ENE 24 28 13 15 - - -
28/02:00pm - - - - - ENE 26 32 14 17 - - -
28/01:30pm - - - - - ENE 24 30 13 16 - - -
28/01:00pm - - - - - ENE 19 24 10 13 - - -
28/12:30pm - - - - - ENE 15 24 8 13 - - -
28/12:00pm - - - - - ENE 15 19 8 10 - - -
28/11:30am - - - - - ENE 15 19 8 10 - - -
28/11:00am - - - - - E 17 22 9 12 - - -
28/10:30am - - - - - ENE 15 17 8 9 - - -
28/10:00am - - - - - ENE 9 13 5 7 - - -
28/09:30am - - - - - NE 7 11 4 6 - - -
28/09:00am - - - - - ENE 9 11 5 6 - - -
28/08:30am - - - - - NNE 7 9 4 5 - - -
28/08:00am - - - - - ENE 4 6 2 3 - - -
28/07:30am - - - - - E 4 6 2 3 - - -
28/07:00am - - - - - ENE 4 6 2 3 - - -
28/06:30am - - - - - ENE 4 4 2 2 - - -
28/06:00am - - - - - N 2 2 1 1 - - -
28/05:30am - - - - - N 4 6 2 3 - - -
28/05:00am - - - - - NNE 4 6 2 3 - - -
28/04:30am - - - - - N 4 6 2 3 - - -
28/04:00am - - - - - NW 4 4 2 2 - - -
28/03:30am - - - - - WNW 7 9 4 5 - - -

Latest Capital City Observations: Canberra | Sydney | Melbourne | Brisbane | Adelaide | Perth | Hobart | Darwin

Other Formats:

Comma delimited format used in spreadsheet applications
http://www.bom.gov.au/fwo/IDN60901/IDN60901.94769.axf

JavaScript Object Notation format (JSON) in row-major order
http://www.bom.gov.au/fwo/IDN60901/IDN60901.94769.json